Cal Poly University, CA

11:19 PM PDT on August 21, 2014 (GMT -0700)
Peach Street | Change Station
CLOSE
Current Station
Personal Weather Station
Location: San Luis Obispo, CA
Elevation: 289 ft
Nearby Weather Stations

Elev 289 ft 35.29 °N, 120.66 °W | Updated 8 minutes ago

Clear
Clear
61.3 °F
Feels Like 61.3 °F
N
0.0
Wind Variable Wind from NW
Gusts 0.0 mph

Today
High -- | Low -- °F
--% Chance of Precip.
Yesterday
High -- | Low -- °F
Precip. -- in
6:26 AM 7:43 PM
Waning Crescent, 10% visible
Pressure 29.96 in
Visibility 10.0 miles
Clouds Clear
Dew Point 58 °F
Humidity 88%
Rainfall 0.00 in
Snow Depth Not available.
UV 0 out of 12
Pollen 7.50 out of 12
Air Quality Not available.
Flu Activity Not available.
METAR KSBP 220556Z AUTO 00000KT 10SM CLR 17/14 A2996 RMK AO2 SLP143 T01670139 10244 20161 51010

More Conditions Fewer Conditions

Pressure 29.96 in
Visibility 10.0 miles
Clouds Clear
Dew Point 58 °F
Humidity 88%
Rainfall 0.00 in
Snow Depth Not available.
UV 0 out of 12
Pollen 7.50 out of 12
Air Quality Not available.
Flu Activity Not available.
METAR KSBP 220556Z AUTO 00000KT 10SM CLR 17/14 A2996 RMK AO2 SLP143 T01670139 10244 20161 51010

More Conditions Fewer Conditions

10-Day Weather Forecast

Almanac

Astronomy

Aug. 21, 2014 Rise Set
Actual Time 6:26 AM PDT 7:43 PM PDT
Civil Twilight 6:00 AM PDT 8:10 PM PDT
Nautical Twilight 5:28 AM PDT 8:42 PM PDT
Astronomical Twilight 4:55 AM PDT 9:14 PM PDT
Moon 3:05 AM PDT (8/21) 5:13 PM PDT (8/21)
Length of Visible Light 14h 10m
Length of Day
13h 17m
Tomorrow will be 2m 1s shorter.
Waning Crescent, 10% of the Moon is Illuminated
Aug 22
Waning Crescent
Aug 25
New
Sep 2
First Quarter
Sep 8
Full
Sep 15
Last Quarter

Community

WunderPhotos

Upload Photos

1,746,131 photos uploaded!

Nearby

Snow Depth

Station Depth Elevation
Leavitt Lake 1 in 9400 ft
Leavitt Meadows 1 in 7200 ft
Blue Lakes 0 in 8000 ft
Forestdale Creek 0 in 8029 ft
Monitor Pass 0 in 8350 ft

Earthquake Activity

City Distance Mag. Time & Date
King City, California 70 miles 2.7 10:26 PM PDT
2014-08-15
Malibu Beach, California 144 miles 3.4 10:03 AM PDT
2014-08-15
Kettleman City, California 62 miles 2.9 11:32 PM PDT
2014-08-14
Minimum magnitude displayed is 2.5.

Coastal Water Temperatures

Place Temperature
No Stations Reporting

Nearby Weather Stations